Time;durP1;ratioP1;P1;durP2;ratioP2;P2;SDS_P1;SDS_P2;PMS_P1;PMS_P2;Temp;Humidity;BMP_temperature;BMP_pressure;BME280_temperature;BME280_humidity;BME280_pressure;Samples;Min_cycle;Max_cycle;Signal;HPM_P1;HPM_P2
2024/04/14 00:00:53;;;;;;;26.53;13.20;;;25.40;54.50;;;;;;5285744;27;20537;-77
2024/04/14 00:03:23;;;;;;;22.87;12.30;;;25.40;54.40;;;;;;5290604;27;20442;-77
2024/04/14 00:05:51;;;;;;;24.80;12.80;;;25.40;54.40;;;;;;5275128;27;20487;-76
2024/04/14 00:08:21;;;;;;;21.17;12.77;;;25.40;54.50;;;;;;5276106;27;21023;-78
2024/04/14 00:10:48;;;;;;;22.23;11.83;;;25.40;54.40;;;;;;5274731;27;20526;-77
2024/04/14 00:13:18;;;;;;;28.27;13.37;;;25.40;54.50;;;;;;5258646;27;20542;-78
2024/04/14 00:15:48;;;;;;;24.73;11.67;;;25.30;54.40;;;;;;5275382;27;20482;-76
2024/04/14 00:18:18;;;;;;;23.43;11.83;;;25.30;54.20;;;;;;5275058;27;20537;-78
2024/04/14 00:20:46;;;;;;;25.67;12.67;;;25.30;54.30;;;;;;5268139;27;20523;-79
2024/04/14 00:23:16;;;;;;;21.60;11.80;;;25.30;54.40;;;;;;5276238;27;20478;-78
2024/04/14 00:25:43;;;;;;;20.93;11.97;;;25.30;54.40;;;;;;5276972;27;20466;-78
2024/04/14 00:28:13;;;;;;;22.10;11.60;;;25.30;54.30;;;;;;5268093;27;20493;-79
2024/04/14 00:30:41;;;;;;;22.20;11.60;;;25.30;54.40;;;;;;5247631;27;20475;-78
2024/04/14 00:33:14;;;;;;;21.90;11.53;;;25.30;54.20;;;;;;5302412;26;20816;-76
2024/04/14 00:35:41;;;;;;;21.43;11.00;;;25.20;54.30;;;;;;5276793;27;20466;-78
2024/04/14 00:38:12;;;;;;;18.40;10.27;;;25.20;54.10;;;;;;5276250;27;20609;-78
2024/04/14 00:40:39;;;;;;;23.33;11.00;;;25.20;54.10;;;;;;5276628;27;20439;-77
2024/04/14 00:43:09;;;;;;;21.80;10.80;;;25.20;54.10;;;;;;5244603;27;20520;-78
2024/04/14 00:45:36;;;;;;;19.70;10.17;;;25.20;54.30;;;;;;5263533;27;20475;-78
2024/04/14 00:48:06;;;;;;;22.43;9.90;;;25.20;54.30;;;;;;5273998;27;20534;-77
2024/04/14 00:50:37;;;;;;;22.77;10.90;;;25.20;54.30;;;;;;5277252;27;20590;-78
2024/04/14 00:53:07;;;;;;;22.50;10.87;;;25.20;54.00;;;;;;5273771;27;20475;-80
2024/04/14 00:55:34;;;;;;;21.30;10.50;;;25.20;54.10;;;;;;5275182;27;20459;-80
2024/04/14 00:58:04;;;;;;;17.03;9.70;;;25.20;54.10;;;;;;5269352;27;20490;-77
2024/04/14 01:00:33;;;;;;;20.43;10.20;;;25.20;54.20;;;;;;5274543;27;20561;-79
2024/04/14 01:03:03;;;;;;;19.97;10.00;;;25.10;54.00;;;;;;5271364;27;20836;-80
2024/04/14 01:05:30;;;;;;;19.03;10.20;;;25.10;54.10;;;;;;5264893;27;20491;-79
2024/04/14 01:08:03;;;;;;;17.80;9.43;;;25.10;54.30;;;;;;5275325;27;20446;-78
2024/04/14 01:10:30;;;;;;;21.13;10.60;;;25.10;54.30;;;;;;5278627;27;20462;-77
2024/04/14 01:13:00;;;;;;;20.97;9.93;;;25.10;54.30;;;;;;5278615;27;20462;-78
2024/04/14 01:15:27;;;;;;;19.93;9.67;;;25.10;54.20;;;;;;5274377;27;20458;-78
2024/04/14 01:17:57;;;;;;;19.47;10.57;;;25.10;54.20;;;;;;5271894;27;20979;-78
2024/04/14 01:20:25;;;;;;;21.37;10.80;;;25.10;54.20;;;;;;5266978;27;20929;-78
2024/04/14 01:22:55;;;;;;;14.47;9.03;;;25.10;54.30;;;;;;5278246;27;20562;-78
2024/04/14 01:25:25;;;;;;;19.93;10.10;;;25.10;54.20;;;;;;5278389;27;20446;-78
2024/04/14 01:27:55;;;;;;;17.73;10.10;;;25.00;54.40;;;;;;5277956;27;20466;-78
2024/04/14 01:30:23;;;;;;;17.40;9.30;;;25.00;54.40;;;;;;5278260;27;20518;-77
2024/04/14 01:32:53;;;;;;;18.20;9.50;;;25.00;54.40;;;;;;5275673;27;20478;-79
2024/04/14 01:35:20;;;;;;;19.70;10.10;;;25.00;54.50;;;;;;5265106;27;20462;-78
2024/04/14 01:37:50;;;;;;;15.03;9.70;;;25.00;54.50;;;;;;5278335;27;20567;-77
2024/04/14 01:40:25;;;;;;;19.33;9.60;;;25.00;54.60;;;;;;5265723;27;20509;-78
2024/04/14 01:42:55;;;;;;;16.33;9.60;;;24.90;54.60;;;;;;5263091;27;20458;-81
2024/04/14 01:45:23;;;;;;;14.80;8.83;;;24.90;54.60;;;;;;5277720;27;20495;-80
2024/04/14 01:47:53;;;;;;;16.50;9.87;;;24.90;54.50;;;;;;5275977;27;20609;-78
2024/04/14 01:50:20;;;;;;;16.70;9.90;;;24.90;54.70;;;;;;5291264;27;20471;-78
2024/04/14 01:52:50;;;;;;;16.77;9.10;;;24.80;54.70;;;;;;5277467;27;20483;-78
2024/04/14 01:55:18;;;;;;;13.67;8.93;;;24.80;54.70;;;;;;5277439;27;20598;-78
2024/04/14 01:57:50;;;;;;;17.97;9.73;;;24.80;54.80;;;;;;5277502;27;20498;-78
2024/04/14 02:00:18;;;;;;;13.50;8.77;;;24.80;54.80;;;;;;5277057;27;20533;-81
2024/04/14 02:02:48;;;;;;;17.37;9.87;;;24.80;54.80;;;;;;5232263;27;20550;-78
2024/04/14 02:05:16;;;;;;;14.00;7.93;;;24.70;54.70;;;;;;5296188;26;20545;-79
2024/04/14 02:07:46;;;;;;;15.10;8.20;;;24.70;54.80;;;;;;5277491;27;20494;-78
2024/04/14 02:10:13;;;;;;;14.27;8.30;;;24.70;54.80;;;;;;5251520;27;20470;-78
2024/04/14 02:12:43;;;;;;;14.10;9.40;;;24.60;55.00;;;;;;5277617;27;20558;-78
2024/04/14 02:15:13;;;;;;;15.57;8.70;;;24.60;54.90;;;;;;5277013;27;20502;-80
2024/04/14 02:17:43;;;;;;;13.80;8.40;;;24.50;54.80;;;;;;5276682;27;20987;-81
2024/04/14 02:20:11;;;;;;;15.27;8.93;;;24.50;54.80;;;;;;5274372;27;20478;-79
2024/04/14 02:22:41;;;;;;;11.23;7.70;;;24.40;54.80;;;;;;5277321;27;20458;-78
2024/04/14 02:25:08;;;;;;;15.93;8.60;;;24.40;54.90;;;;;;5277377;27;20486;-78
2024/04/14 02:27:38;;;;;;;13.80;8.47;;;24.40;55.00;;;;;;5277625;27;20478;-77
2024/04/14 02:30:06;;;;;;;15.13;8.17;;;24.40;54.90;;;;;;5277121;27;20475;-76
2024/04/14 02:32:39;;;;;;;13.70;7.93;;;24.30;54.90;;;;;;5275759;27;20604;-77
2024/04/14 02:35:07;;;;;;;12.47;8.10;;;24.30;54.90;;;;;;5276942;27;21103;-74
2024/04/14 02:37:36;;;;;;;15.60;9.17;;;24.30;55.10;;;;;;5277451;27;20537;-80
2024/04/14 02:40:05;;;;;;;15.47;7.97;;;24.30;55.10;;;;;;5277313;27;20502;-78
2024/04/14 02:42:37;;;;;;;16.37;8.93;;;24.30;55.20;;;;;;5273024;27;20490;-77
2024/04/14 02:45:05;;;;;;;12.13;7.47;;;24.30;55.10;;;;;;5272350;27;20520;-79
2024/04/14 02:47:35;;;;;;;15.47;7.87;;;24.20;55.10;;;;;;5276192;27;20494;-80
2024/04/14 02:50:06;;;;;;;13.67;7.63;;;24.20;55.00;;;;;;5277141;27;20471;-77
2024/04/14 02:52:36;;;;;;;12.70;7.40;;;24.20;55.10;;;;;;5277521;27;20522;-78
2024/04/14 02:55:04;;;;;;;11.63;7.27;;;24.20;55.10;;;;;;5276319;27;20470;-78
2024/04/14 02:57:34;;;;;;;12.73;7.47;;;24.20;55.10;;;;;;5287429;27;20552;-78
2024/04/14 03:00:02;;;;;;;14.07;7.50;;;24.20;55.10;;;;;;5276379;27;20474;-78
2024/04/14 03:02:32;;;;;;;11.03;6.60;;;24.20;55.10;;;;;;5276514;27;20467;-80
2024/04/14 03:04:59;;;;;;;11.20;7.20;;;24.10;55.00;;;;;;5272962;27;20573;-77
2024/04/14 03:07:33;;;;;;;13.83;7.63;;;24.10;55.00;;;;;;5275758;27;20550;-77
2024/04/14 03:10:00;;;;;;;13.67;7.10;;;24.10;54.90;;;;;;5275534;27;20507;-78
2024/04/14 03:12:30;;;;;;;11.03;6.83;;;24.10;55.10;;;;;;5276405;27;20511;-78
2024/04/14 03:14:57;;;;;;;11.77;7.10;;;24.00;54.90;;;;;;5275708;27;20475;-77
2024/04/14 03:17:27;;;;;;;14.00;7.10;;;24.00;55.10;;;;;;5276385;27;20458;-78
2024/04/14 03:19:55;;;;;;;9.00;6.30;;;24.00;55.00;;;;;;5268703;27;20678;-78
2024/04/14 03:22:24;;;;;;;13.20;7.40;;;24.00;55.10;;;;;;5276538;27;20888;-78
2024/04/14 03:24:54;;;;;;;11.20;7.03;;;23.90;54.80;;;;;;5276718;27;20497;-78
2024/04/14 03:27:24;;;;;;;10.50;6.40;;;23.90;55.10;;;;;;5276056;27;20478;-78
2024/04/14 03:29:51;;;;;;;11.03;6.80;;;23.90;55.20;;;;;;5276229;27;20519;-77
2024/04/14 03:32:22;;;;;;;9.90;6.50;;;23.90;55.20;;;;;;5276017;27;20522;-77
2024/04/14 03:34:51;;;;;;;10.63;6.63;;;23.90;55.10;;;;;;5274693;27;20502;-77
2024/04/14 03:37:21;;;;;;;12.50;7.00;;;23.80;55.00;;;;;;5276372;27;21147;-76
2024/04/14 03:39:51;;;;;;;7.97;5.80;;;23.80;55.10;;;;;;5303059;27;20470;-78
2024/04/14 03:42:24;;;;;;;10.43;6.43;;;23.80;55.20;;;;;;5302521;27;20532;-78
2024/04/14 03:44:54;;;;;;;11.73;6.37;;;23.80;55.10;;;;;;5276759;27;20489;-78
2024/04/14 03:47:23;;;;;;;10.03;6.10;;;23.80;55.20;;;;;;5276010;27;20490;-78
2024/04/14 03:49:53;;;;;;;11.13;6.47;;;23.70;54.80;;;;;;5276212;27;20537;-77
2024/04/14 03:52:20;;;;;;;9.60;6.07;;;23.70;55.80;;;;;;5276160;27;20556;-78
2024/04/14 03:54:50;;;;;;;9.40;5.83;;;23.60;55.10;;;;;;5262009;27;20474;-77
2024/04/14 03:57:17;;;;;;;11.03;5.80;;;23.60;55.30;;;;;;5276066;27;20564;-78
2024/04/14 03:59:50;;;;;;;10.63;6.10;;;23.60;55.20;;;;;;5276296;27;20521;-80
2024/04/14 04:02:18;;;;;;;10.47;6.00;;;23.60;55.30;;;;;;5275918;27;20485;-78
2024/04/14 04:04:48;;;;;;;10.57;6.03;;;23.50;55.20;;;;;;5275552;27;20532;-79
2024/04/14 04:07:15;;;;;;;10.20;6.20;;;23.50;55.20;;;;;;5275487;27;20539;-80
2024/04/14 04:09:45;;;;;;;10.40;5.53;;;23.50;55.10;;;;;;5276092;27;20455;-77
2024/04/14 04:12:12;;;;;;;8.60;5.40;;;23.50;55.10;;;;;;5276203;27;20463;-77
2024/04/14 04:14:42;;;;;;;11.50;6.00;;;23.50;55.30;;;;;;5275898;27;20463;-79
2024/04/14 04:17:12;;;;;;;10.83;5.67;;;23.50;55.20;;;;;;5289577;27;20482;-77
2024/04/14 04:19:42;;;;;;;10.50;5.63;;;23.40;55.20;;;;;;5268459;27;20490;-77
2024/04/14 04:22:10;;;;;;;7.23;5.00;;;23.40;55.10;;;;;;5275453;27;20462;-77
2024/04/14 04:24:40;;;;;;;9.40;5.83;;;23.40;55.10;;;;;;5275562;27;20589;-77
2024/04/14 04:27:07;;;;;;;9.17;4.90;;;23.40;55.20;;;;;;5275984;27;20862;-78
2024/04/14 04:29:37;;;;;;;8.77;5.00;;;23.40;55.10;;;;;;5275997;27;20470;-80
2024/04/14 04:32:05;;;;;;;9.93;4.87;;;23.30;55.00;;;;;;5275695;27;20460;-78
2024/04/14 04:34:38;;;;;;;6.50;4.60;;;23.30;55.00;;;;;;5274587;27;20482;-77
2024/04/14 04:37:05;;;;;;;10.10;5.17;;;23.30;55.00;;;;;;5275715;27;20486;-78
2024/04/14 04:39:35;;;;;;;7.47;4.97;;;23.30;55.10;;;;;;5275606;27;20494;-78
2024/04/14 04:42:02;;;;;;;10.23;5.07;;;23.30;55.00;;;;;;5275085;27;20490;-77
2024/04/14 04:44:32;;;;;;;9.67;5.37;;;23.20;54.90;;;;;;5277838;27;20478;-78
2024/04/14 04:46:59;;;;;;;9.20;5.00;;;23.20;54.80;;;;;;5264257;27;20478;-80
2024/04/14 04:49:29;;;;;;;7.13;4.73;;;23.20;54.90;;;;;;5278719;27;20482;-77
2024/04/14 04:51:59;;;;;;;6.30;4.10;;;23.20;54.90;;;;;;5279227;27;20848;-78
2024/04/14 04:54:29;;;;;;;8.83;4.80;;;23.20;54.90;;;;;;5278845;27;20566;-77
2024/04/14 04:56:56;;;;;;;9.43;4.40;;;23.10;55.00;;;;;;5276990;27;20587;-78
2024/04/14 04:59:26;;;;;;;7.50;4.47;;;23.10;55.00;;;;;;5279351;27;20454;-77
2024/04/14 05:01:54;;;;;;;7.13;4.10;;;23.10;55.50;;;;;;5278769;27;20494;-78
2024/04/14 05:04:24;;;;;;;8.80;5.20;;;23.10;55.00;;;;;;5278889;27;20511;-77
2024/04/14 05:06:51;;;;;;;7.43;4.83;;;23.10;54.90;;;;;;5269936;27;20480;-78
2024/04/14 05:09:24;;;;;;;6.80;4.23;;;23.10;54.90;;;;;;5274676;27;20478;-77
2024/04/14 05:11:51;;;;;;;6.97;4.17;;;23.00;55.00;;;;;;5278302;27;20568;-79
2024/04/14 05:14:22;;;;;;;5.30;4.10;;;23.00;55.00;;;;;;5278200;27;20458;-77
2024/04/14 05:16:49;;;;;;;5.47;4.07;;;23.00;55.10;;;;;;5278429;27;20482;-80
2024/04/14 05:19:19;;;;;;;6.70;4.30;;;23.00;55.10;;;;;;5277054;27;20466;-77
2024/04/14 05:21:46;;;;;;;6.93;4.03;;;23.00;55.10;;;;;;5270964;27;20512;-77
2024/04/14 05:24:16;;;;;;;6.13;4.03;;;23.00;55.00;;;;;;5278666;27;20506;-80
2024/04/14 05:26:46;;;;;;;5.67;3.87;;;23.00;55.00;;;;;;5278349;27;21123;-80
2024/04/14 05:29:16;;;;;;;8.40;4.23;;;23.00;54.90;;;;;;5278205;27;20458;-77
2024/04/14 05:31:43;;;;;;;6.83;4.40;;;23.00;54.90;;;;;;5277803;27;20478;-79
2024/04/14 05:34:14;;;;;;;5.80;3.70;;;23.00;54.90;;;;;;5276889;27;20466;-78
2024/04/14 05:36:41;;;;;;;7.53;4.23;;;23.00;55.10;;;;;;5276953;27;20538;-78
2024/04/14 05:39:11;;;;;;;7.23;3.60;;;23.00;55.00;;;;;;5276867;27;20518;-78
2024/04/14 05:41:38;;;;;;;6.00;4.07;;;23.00;54.90;;;;;;5278096;27;20474;-80
2024/04/14 05:44:11;;;;;;;7.43;3.70;;;23.00;54.70;;;;;;5261447;27;20502;-78
2024/04/14 05:46:38;;;;;;;3.73;3.27;;;23.00;54.70;;;;;;5278008;27;20483;-77
2024/04/14 05:49:08;;;;;;;5.87;3.73;;;23.00;54.90;;;;;;5277899;27;20566;-78
2024/04/14 05:51:45;;;;;;;6.53;3.60;;;23.00;54.80;;;;;;5277850;27;20580;-78
2024/04/14 05:54:15;;;;;;;6.07;3.83;;;23.00;54.70;;;;;;5276683;27;20474;-78
2024/04/14 05:56:43;;;;;;;5.90;3.63;;;23.00;54.70;;;;;;5263212;27;20486;-78
2024/04/14 05:59:15;;;;;;;6.67;3.60;;;23.00;54.70;;;;;;5276276;27;20482;-78
2024/04/14 06:01:42;;;;;;;5.90;3.70;;;23.00;54.60;;;;;;5278234;27;20454;-78
2024/04/14 06:04:12;;;;;;;6.77;4.00;;;23.00;54.70;;;;;;5277786;27;20498;-81
2024/04/14 06:06:40;;;;;;;6.80;3.33;;;23.00;54.70;;;;;;5275751;27;20474;-81
2024/04/14 06:09:10;;;;;;;8.00;4.10;;;23.10;54.70;;;;;;5277576;27;20488;-78
2024/04/14 06:11:38;;;;;;;8.07;3.63;;;23.10;54.90;;;;;;5278268;27;20498;-78
2024/04/14 06:14:08;;;;;;;8.57;4.00;;;23.10;54.80;;;;;;5277622;27;20478;-76
2024/04/14 06:16:37;;;;;;;6.40;3.07;;;23.10;54.80;;;;;;5277730;27;20523;-79
2024/04/14 06:19:08;;;;;;;6.60;3.57;;;23.10;54.60;;;;;;5277880;27;20470;-78
2024/04/14 06:21:35;;;;;;;5.50;3.13;;;23.20;54.70;;;;;;5277504;27;20491;-79
2024/04/14 06:24:05;;;;;;;5.13;3.10;;;23.20;54.80;;;;;;5278064;27;20539;-78
2024/04/14 06:26:32;;;;;;;5.73;3.10;;;23.30;54.80;;;;;;5277325;27;20518;-77
2024/04/14 06:29:02;;;;;;;6.90;3.27;;;23.30;54.60;;;;;;5277237;27;20518;-78
2024/04/14 06:31:30;;;;;;;4.00;2.77;;;23.30;54.50;;;;;;5277312;27;20565;-78
2024/04/14 06:34:02;;;;;;;8.33;3.40;;;23.40;54.50;;;;;;5268074;27;20581;-78
2024/04/14 06:36:30;;;;;;;8.27;3.37;;;23.40;54.40;;;;;;5268672;27;20471;-79
2024/04/14 06:39:00;;;;;;;4.43;3.00;;;23.40;54.40;;;;;;5273067;27;20471;-77
2024/04/14 06:41:27;;;;;;;4.83;2.93;;;23.40;54.30;;;;;;5262407;27;20569;-78
2024/04/14 06:43:57;;;;;;;16.40;3.30;;;23.40;54.30;;;;;;5275143;27;20588;-77
2024/04/14 06:46:24;;;;;;;5.63;2.90;;;23.40;54.30;;;;;;5286499;27;20486;-79
2024/04/14 06:48:54;;;;;;;4.50;3.30;;;23.50;54.30;;;;;;5276779;27;20478;-77
2024/04/14 06:51:24;;;;;;;4.20;3.20;;;23.50;54.00;;;;;;5275414;27;20454;-79
2024/04/14 06:53:56;;;;;;;2.93;2.63;;;23.60;54.20;;;;;;5272704;27;20565;-77
2024/04/14 06:56:23;;;;;;;3.77;2.90;;;23.60;54.80;;;;;;5271202;27;20560;-79
2024/04/14 06:58:53;;;;;;;6.47;3.07;;;23.60;54.20;;;;;;5276715;27;20494;-76
2024/04/14 07:01:20;;;;;;;6.00;3.10;;;23.70;54.20;;;;;;5276555;27;20486;-77
2024/04/14 07:03:50;;;;;;;5.67;2.80;;;23.80;54.10;;;;;;5264708;27;20532;-77
2024/04/14 07:06:18;;;;;;;3.73;2.70;;;23.80;53.90;;;;;;5275853;27;20483;-78
2024/04/14 07:08:50;;;;;;;5.20;3.30;;;23.90;53.90;;;;;;5276589;27;20486;-78
2024/04/14 07:11:18;;;;;;;7.60;2.77;;;23.90;53.80;;;;;;5276751;27;20494;-78
2024/04/14 07:13:48;;;;;;;3.23;2.70;;;23.90;53.80;;;;;;5269370;27;21012;-78
2024/04/14 07:16:15;;;;;;;5.17;2.77;;;23.90;53.80;;;;;;5268718;27;20592;-77
2024/04/14 07:18:48;;;;;;;2.50;2.30;;;23.90;53.60;;;;;;5276192;27;20545;-77
2024/04/14 07:21:15;;;;;;;5.00;2.70;;;24.00;53.80;;;;;;5276423;27;20478;-78
2024/04/14 07:23:45;;;;;;;3.23;2.63;;;24.10;53.80;;;;;;5276243;27;21023;-81
2024/04/14 07:26:15;;;;;;;3.50;2.20;;;24.10;54.00;;;;;;5269968;27;20474;-77
2024/04/14 07:28:45;;;;;;;4.90;2.93;;;24.10;54.10;;;;;;5275017;27;20471;-78
2024/04/14 07:31:12;;;;;;;3.43;2.17;;;24.20;54.20;;;;;;5276341;27;20483;-78
2024/04/14 07:33:42;;;;;;;5.87;2.40;;;24.30;54.30;;;;;;5276168;27;20458;-77
2024/04/14 07:36:10;;;;;;;3.43;2.50;;;24.30;54.10;;;;;;5274292;27;20530;-78
2024/04/14 07:38:39;;;;;;;5.50;2.20;;;24.30;54.10;;;;;;5275618;27;20454;-78
2024/04/14 07:41:07;;;;;;;2.33;2.13;;;24.30;54.30;;;;;;5263729;27;20516;-75
2024/04/14 07:43:40;;;;;;;4.57;2.60;;;24.40;54.30;;;;;;5272323;27;20478;-78
2024/04/14 07:46:07;;;;;;;4.60;2.30;;;24.40;54.20;;;;;;5276606;27;20514;-78
2024/04/14 07:48:37;;;;;;;4.93;2.50;;;24.40;54.40;;;;;;5260486;27;20539;-78
2024/04/14 07:51:04;;;;;;;3.40;2.17;;;24.60;54.40;;;;;;5267851;27;20578;-77
2024/04/14 07:53:34;;;;;;;2.80;2.10;;;24.70;54.40;;;;;;5264187;27;20491;-77
2024/04/14 07:56:02;;;;;;;3.87;2.43;;;24.80;54.40;;;;;;5276717;27;20574;-78
2024/04/14 07:58:32;;;;;;;3.40;2.00;;;24.90;54.50;;;;;;5275987;27;20490;-78
2024/04/14 08:01:02;;;;;;;4.23;2.30;;;25.00;54.50;;;;;;5276703;27;20528;-78
2024/04/14 08:03:32;;;;;;;2.80;2.30;;;25.10;54.70;;;;;;5276217;27;20586;-79
2024/04/14 08:06:17;;;;;;;3.40;1.80;;;25.20;54.80;;;;;;5276022;27;20482;-79
2024/04/14 08:08:47;;;;;;;4.33;2.00;;;25.40;54.90;;;;;;5276010;27;20482;-77
2024/04/14 08:11:14;;;;;;;3.07;2.10;;;25.60;55.00;;;;;;5276144;27;20478;-79
2024/04/14 08:13:44;;;;;;;2.53;1.77;;;25.70;55.00;;;;;;5276561;27;20454;-79
2024/04/14 08:16:14;;;;;;;1.90;1.80;;;25.90;55.00;;;;;;5265872;27;20482;-79
2024/04/14 08:18:47;;;;;;;2.60;1.83;;;26.10;55.00;;;;;;5277411;27;20573;-78
2024/04/14 08:21:15;;;;;;;5.37;2.10;;;26.30;54.70;;;;;;5288954;27;20446;-79
2024/04/14 08:23:45;;;;;;;4.47;2.30;;;26.40;54.90;;;;;;5294145;27;20446;-78
2024/04/14 08:26:12;;;;;;;3.53;2.07;;;26.60;54.70;;;;;;5279677;27;20588;-79
2024/04/14 08:28:42;;;;;;;3.80;1.90;;;26.80;54.70;;;;;;5277421;27;20446;-78
2024/04/14 08:31:10;;;;;;;4.10;2.00;;;27.00;54.60;;;;;;5264807;27;20451;-77
2024/04/14 08:33:42;;;;;;;2.20;1.60;;;27.20;54.50;;;;;;5278650;27;20458;-79
2024/04/14 08:36:10;;;;;;;3.93;1.93;;;27.40;54.30;;;;;;5278859;27;20581;-79
2024/04/14 08:38:41;;;;;;;2.30;2.10;;;27.60;54.20;;;;;;5277796;27;20497;-79
2024/04/14 08:41:08;;;;;;;2.60;1.80;;;27.70;54.10;;;;;;5277800;27;20559;-79
2024/04/14 08:43:38;;;;;;;2.97;2.17;;;27.80;53.80;;;;;;5279269;27;20589;-79
2024/04/14 08:46:05;;;;;;;1.77;1.67;;;28.00;53.90;;;;;;5256825;27;20456;-81
2024/04/14 08:48:36;;;;;;;2.40;2.00;;;28.10;53.70;;;;;;5273207;27;20497;-78
2024/04/14 08:51:06;;;;;;;2.17;1.97;;;28.30;53.60;;;;;;5278680;27;20474;-79
2024/04/14 08:53:36;;;;;;;1.97;1.80;;;28.50;53.40;;;;;;5278773;27;20531;-79
2024/04/14 08:56:03;;;;;;;2.33;1.70;;;28.60;53.20;;;;;;5277864;27;20540;-78
2024/04/14 08:58:33;;;;;;;3.40;2.23;;;28.80;53.00;;;;;;5278701;27;20506;-79
2024/04/14 09:01:01;;;;;;;3.13;1.80;;;29.00;52.70;;;;;;5264979;27;20566;-78
2024/04/14 09:03:32;;;;;;;2.50;1.70;;;29.20;52.70;;;;;;5278387;27;20462;-79
2024/04/14 09:06:01;;;;;;;2.83;1.80;;;29.20;51.50;;;;;;5277953;27;20512;-78
2024/04/14 09:08:34;;;;;;;1.90;1.80;;;29.30;51.50;;;;;;5278289;27;20470;-82
2024/04/14 09:11:01;;;;;;;2.77;1.97;;;29.40;51.40;;;;;;5278414;27;20454;-79
2024/04/14 09:13:31;;;;;;;1.80;1.70;;;29.60;51.10;;;;;;5275028;27;20463;-78
2024/04/14 09:15:59;;;;;;;2.40;1.90;;;29.60;50.60;;;;;;5260571;27;20490;-79
2024/04/14 09:18:29;;;;;;;3.50;2.00;;;29.70;50.30;;;;;;5280071;27;20442;-78
2024/04/14 09:20:56;;;;;;;4.23;2.10;;;29.70;49.90;;;;;;5280112;27;20514;-78
2024/04/14 09:23:26;;;;;;;2.03;1.80;;;29.80;49.80;;;;;;5277628;27;20726;-79
2024/04/14 09:25:56;;;;;;;1.93;1.60;;;29.90;49.70;;;;;;5279186;27;20486;-78
2024/04/14 09:28:26;;;;;;;2.80;2.10;;;30.00;49.30;;;;;;5279499;27;20470;-79
2024/04/14 09:30:54;;;;;;;3.20;2.40;;;30.20;49.50;;;;;;5278388;27;20722;-79
2024/04/14 09:33:24;;;;;;;1.90;1.70;;;30.40;49.20;;;;;;5306671;27;20469;-79
2024/04/14 09:35:51;;;;;;;2.47;2.17;;;30.60;49.10;;;;;;5274403;27;20466;-77
2024/04/14 09:38:21;;;;;;;3.20;2.10;;;30.90;48.80;;;;;;5270229;27;20547;-80
2024/04/14 09:40:48;;;;;;;2.13;1.67;;;30.90;48.20;;;;;;5259847;27;20906;-75
2024/04/14 09:43:21;;;;;;;2.00;1.90;;;31.00;48.20;;;;;;5280693;27;20499;-79
2024/04/14 09:45:48;;;;;;;1.80;1.70;;;31.30;48.10;;;;;;5280995;27;20521;-78
2024/04/14 09:48:19;;;;;;;1.80;1.70;;;31.50;48.20;;;;;;5279471;27;20447;-79
2024/04/14 09:50:46;;;;;;;1.97;1.53;;;31.70;47.80;;;;;;5278247;27;20510;-79
2024/04/14 09:53:16;;;;;;;1.70;1.60;;;31.80;47.30;;;;;;5279432;27;20539;-81
2024/04/14 09:55:43;;;;;;;5.37;2.10;;;32.00;47.00;;;;;;5278358;27;20564;-78
2024/04/14 09:58:13;;;;;;;3.03;2.00;;;32.20;46.80;;;;;;5259297;27;20484;-79
2024/04/14 10:00:43;;;;;;;2.10;1.53;;;32.30;46.50;;;;;;5279262;27;20494;-79
2024/04/14 10:03:13;;;;;;;2.40;1.87;;;32.50;45.80;;;;;;5278665;27;20470;-79
2024/04/14 10:05:41;;;;;;;2.43;1.70;;;32.50;45.20;;;;;;5279018;27;20545;-80
2024/04/14 10:08:10;;;;;;;1.83;1.60;;;32.50;44.90;;;;;;5278206;27;20544;-80
2024/04/14 10:10:38;;;;;;;4.33;1.70;;;32.50;44.30;;;;;;5278110;27;20479;-79
2024/04/14 10:13:12;;;;;;;1.87;1.70;;;32.40;43.90;;;;;;5268726;27;20507;-79
2024/04/14 10:15:54;;;;;;;2.47;1.43;;;32.40;44.60;;;;;;5278426;27;20527;-79
2024/04/14 10:18:25;;;;;;;3.27;1.37;;;32.40;43.70;;;;;;5267709;27;20818;-78
2024/04/14 10:20:55;;;;;;;2.87;1.30;;;31.30;30.80;;;;;;5275356;27;20526;-81
2024/04/14 10:23:25;;;;;;;4.87;1.50;;;27.90;30.10;;;;;;5261491;27;20455;-77
2024/04/14 10:25:52;;;;;;;3.40;1.20;;;25.70;28.50;;;;;;5276759;27;20454;-77
2024/04/14 10:28:23;;;;;;;3.33;1.43;;;25.00;32.30;;;;;;5277205;27;20458;-77
2024/04/14 10:31:01;;;;;;;2.00;1.07;;;25.80;33.40;;;;;;5276926;27;20471;-77
2024/04/14 10:33:32;;;;;;;2.90;1.33;;;26.60;32.60;;;;;;5277406;27;20533;-76
2024/04/14 10:36:00;;;;;;;5.27;1.50;;;27.20;32.80;;;;;;5275610;27;20521;-76
2024/04/14 10:38:31;;;;;;;4.10;1.33;;;27.70;33.00;;;;;;5277488;27;20588;-80
2024/04/14 10:40:59;;;;;;;3.40;1.20;;;28.00;33.40;;;;;;5274272;27;20466;-76
2024/04/14 10:43:29;;;;;;;3.57;1.37;;;28.30;33.70;;;;;;5277254;27;20543;-77
2024/04/14 10:46:01;;;;;;;1.40;1.10;;;28.40;34.20;;;;;;5277300;27;20482;-76
2024/04/14 10:48:32;;;;;;;2.13;1.40;;;28.50;34.90;;;;;;5275623;27;20443;-76
2024/04/14 10:51:00;;;;;;;1.70;1.30;;;28.70;35.50;;;;;;5274369;27;20535;-77
2024/04/14 10:53:31;;;;;;;3.63;1.17;;;28.80;35.30;;;;;;5277105;27;20490;-77
2024/04/14 10:55:58;;;;;;;4.53;1.50;;;28.90;35.70;;;;;;5276970;27;20568;-76
2024/04/14 10:58:30;;;;;;;3.93;1.40;;;28.90;35.80;;;;;;5275311;27;20478;-77
2024/04/14 11:00:57;;;;;;;1.33;1.20;;;28.80;36.10;;;;;;5277525;27;20462;-78
2024/04/14 11:03:30;;;;;;;6.23;1.73;;;28.90;36.60;;;;;;5276499;27;20486;-77
2024/04/14 11:05:58;;;;;;;1.53;1.10;;;29.10;36.90;;;;;;5273980;27;20580;-76
2024/04/14 11:08:28;;;;;;;5.10;2.80;;;29.20;36.80;;;;;;5256078;27;20514;-76
2024/04/14 11:10:55;;;;;;;28.37;21.20;;;29.30;36.70;;;;;;5242763;27;20472;-76
2024/04/14 11:13:27;;;;;;;21.00;14.10;;;29.30;36.90;;;;;;5244137;27;20487;-76
2024/04/14 11:15:56;;;;;;;12.83;9.27;;;29.00;36.20;;;;;;5255354;27;20799;-77
2024/04/14 11:18:31;;;;;;;30.37;23.37;;;29.10;35.90;;;;;;5265772;27;20482;-76
2024/04/14 11:20:58;;;;;;;16.77;13.90;;;29.20;36.40;;;;;;5278066;27;20551;-75
2024/04/14 11:23:29;;;;;;;8.67;7.77;;;29.30;34.80;;;;;;5277568;27;21042;-77
2024/04/14 11:25:56;;;;;;;7.80;7.00;;;29.70;33.90;;;;;;5275672;27;20585;-77
2024/04/14 11:28:26;;;;;;;8.37;5.90;;;30.80;31.40;;;;;;5265933;27;20557;-78
2024/04/14 11:30:53;;;;;;;6.43;5.77;;;31.50;31.80;;;;;;5278002;27;20458;-78
2024/04/14 11:33:23;;;;;;;11.43;4.90;;;32.10;29.10;;;;;;5255783;27;20488;-77
2024/04/14 11:36:05;;;;;;;7.00;4.47;;;31.30;29.50;;;;;;5247196;27;20540;-77
2024/04/14 11:38:33;;;;;;;7.57;3.47;;;31.20;31.30;;;;;;5266167;27;20495;-77
2024/04/14 11:41:03;;;;;;;3.83;3.20;;;30.90;29.70;;;;;;5255822;27;20456;-77
2024/04/14 11:43:30;;;;;;;6.60;3.50;;;30.30;29.80;;;;;;5276183;27;20486;-77
2024/04/14 11:46:00;;;;;;;6.00;3.10;;;29.70;29.90;;;;;;5275739;27;20490;-78
2024/04/14 11:48:27;;;;;;;3.37;3.07;;;30.90;31.20;;;;;;5245349;27;20440;-78
2024/04/14 11:51:12;;;;;;;5.57;2.63;;;33.40;29.30;;;;;;5274551;27;20470;-78
2024/04/14 11:53:39;;;;;;;4.63;2.77;;;34.70;26.50;;;;;;5268524;27;21173;-79
2024/04/14 11:56:10;;;;;;;4.93;2.90;;;33.70;27.00;;;;;;5280169;27;20515;-79
2024/04/14 11:58:47;;;;;;;6.27;2.70;;;34.20;26.40;;;;;;5280005;27;20502;-82
2024/04/14 12:01:17;;;;;;;5.13;2.80;;;34.30;26.50;;;;;;5268099;27;20482;-79
2024/04/14 12:03:44;;;;;;;6.37;3.10;;;33.10;28.10;;;;;;5277140;27;21019;-79
2024/04/14 12:06:17;;;;;;;3.93;2.40;;;32.90;29.70;;;;;;5270876;27;20597;-81
2024/04/14 12:08:47;;;;;;;3.83;2.50;;;32.40;29.40;;;;;;5275380;27;20486;-79
2024/04/14 12:11:15;;;;;;;4.50;2.40;;;31.60;30.30;;;;;;5264467;27;20512;-79
2024/04/14 12:13:45;;;;;;;2.90;2.37;;;31.90;31.50;;;;;;5279047;27;20523;-78
2024/04/14 12:16:13;;;;;;;3.93;2.33;;;32.50;30.80;;;;;;5268471;27;20502;-80
2024/04/14 12:18:43;;;;;;;9.67;2.50;;;33.20;31.60;;;;;;5257114;27;20474;-81
2024/04/14 12:21:10;;;;;;;3.70;1.70;;;35.10;29.90;;;;;;5279281;27;20463;-78
2024/04/14 12:23:44;;;;;;;5.30;2.00;;;36.90;28.50;;;;;;5278062;27;20470;-79
2024/04/14 12:26:13;;;;;;;3.17;2.00;;;38.40;26.90;;;;;;5278096;27;20482;-79
2024/04/14 12:28:43;;;;;;;14.93;2.13;;;39.40;26.70;;;;;;5273303;27;20529;-79
2024/04/14 12:31:11;;;;;;;3.30;1.60;;;40.30;25.90;;;;;;5277814;27;20568;-79
2024/04/14 12:33:41;;;;;;;2.93;1.60;;;40.80;25.40;;;;;;5277552;27;20541;-79
2024/04/14 12:36:09;;;;;;;1.53;1.43;;;41.30;24.70;;;;;;5277455;27;20470;-80
2024/04/14 12:38:42;;;;;;;5.17;1.67;;;41.60;24.60;;;;;;5277735;27;21113;-80
2024/04/14 12:41:10;;;;;;;12.43;2.00;;;41.90;24.00;;;;;;5272061;27;20463;-79
2024/04/14 12:43:39;;;;;;;4.07;1.90;;;40.70;24.50;;;;;;5254872;27;20617;-80
2024/04/14 12:46:07;;;;;;;1.70;1.60;;;41.00;24.70;;;;;;5277270;27;20470;-79
2024/04/14 12:48:37;;;;;;;6.13;2.30;;;39.40;24.70;;;;;;5254264;27;20501;-79
2024/04/14 12:51:04;;;;;;;4.67;1.67;;;39.10;26.10;;;;;;5303433;27;20532;-80
2024/04/14 12:53:34;;;;;;;4.13;1.50;;;39.90;25.30;;;;;;5287030;27;20570;-80